createdAt,value
2018-03-27T00:07:11.052Z,99.90
2018-03-27T00:12:05.657Z,99.90
2018-03-27T00:14:32.585Z,99.90
2018-03-27T00:17:01.029Z,99.90
2018-03-27T00:19:27.543Z,99.90
2018-03-27T00:21:54.480Z,99.90
2018-03-27T00:24:21.469Z,99.90
2018-03-27T00:26:59.803Z,99.90
2018-03-27T00:29:38.495Z,99.90
2018-03-27T00:32:17.197Z,99.90
2018-03-27T00:34:56.219Z,99.90
2018-03-27T00:37:35.303Z,99.90
2018-03-27T00:40:14.840Z,99.90
2018-03-27T00:45:37.718Z,99.90
2018-03-27T00:48:05.115Z,99.90
2018-03-27T00:50:31.651Z,99.90
2018-03-27T00:52:58.369Z,99.90
2018-03-27T00:55:24.888Z,99.90
2018-03-27T00:57:51.411Z,99.90
2018-03-27T01:00:19.135Z,99.90
2018-03-27T01:02:45.986Z,99.90
2018-03-27T01:05:12.811Z,99.90
2018-03-27T01:10:07.755Z,99.90
2018-03-27T01:12:34.225Z,99.90
2018-03-27T01:15:00.692Z,99.90
2018-03-27T01:17:27.317Z,99.90
2018-03-27T01:19:54.174Z,99.90
2018-03-27T01:22:21.049Z,99.90
2018-03-27T01:24:47.440Z,99.90
2018-03-27T01:27:13.872Z,99.90
2018-03-27T01:29:41.815Z,99.90
2018-03-27T01:32:09.354Z,99.90
2018-03-27T01:34:36.960Z,99.90
2018-03-27T01:37:03.906Z,99.90
2018-03-27T01:39:30.465Z,99.90
2018-03-27T01:41:57.767Z,99.90
2018-03-27T01:44:25.090Z,99.90
2018-03-27T01:46:51.662Z,99.90
2018-03-27T01:49:18.578Z,99.90
2018-03-27T01:51:45.915Z,99.90
2018-03-27T01:54:12.355Z,99.90
2018-03-27T01:56:39.234Z,99.90
2018-03-27T01:59:06.865Z,99.90
2018-03-27T02:01:33.392Z,99.90
2018-03-27T02:06:28.449Z,99.90
2018-03-27T02:08:56.063Z,99.90
2018-03-27T02:11:29.339Z,99.90
2018-03-27T02:14:01.839Z,99.90
2018-03-27T02:16:35.341Z,99.90
2018-03-27T02:19:09.124Z,99.90
2018-03-27T02:21:36.068Z,99.90
2018-03-27T02:24:17.503Z,99.90
2018-03-27T02:26:44.490Z,99.90
2018-03-27T02:29:11.418Z,99.90
2018-03-27T02:31:39.880Z,99.90
2018-03-27T02:34:06.534Z,99.90
2018-03-27T02:36:33.347Z,99.90
2018-03-27T02:39:00.042Z,99.90
2018-03-27T02:41:26.940Z,99.90
2018-03-27T02:43:54.736Z,99.90
2018-03-27T02:46:22.155Z,99.90
2018-03-27T02:48:48.691Z,99.90
2018-03-27T02:51:15.952Z,99.90
2018-03-27T02:53:42.597Z,99.90
2018-03-27T02:58:38.743Z,99.90
2018-03-27T03:03:33.604Z,99.90
2018-03-27T03:06:00.309Z,99.90
2018-03-27T03:08:26.771Z,99.90
2018-03-27T03:10:53.296Z,99.90
2018-03-27T03:13:19.800Z,99.90
2018-03-27T03:15:46.268Z,99.90
2018-03-27T03:20:40.905Z,99.90
2018-03-27T03:23:07.384Z,99.90
2018-03-27T03:25:34.108Z,99.90
2018-03-27T03:28:00.548Z,99.90
2018-03-27T03:32:56.153Z,99.90
2018-03-27T03:35:23.399Z,99.90
2018-03-27T03:37:49.947Z,99.90
2018-03-27T03:40:16.775Z,99.90
2018-03-27T03:42:44.366Z,99.90
2018-03-27T03:48:08.270Z,99.90
2018-03-27T03:50:35.518Z,99.90
2018-03-27T03:53:02.029Z,99.90
2018-03-27T03:55:29.133Z,99.90
2018-03-27T03:57:55.624Z,99.90
2018-03-27T04:00:22.941Z,99.90
2018-03-27T04:02:50.517Z,99.90
2018-03-27T04:05:17.740Z,99.90
2018-03-27T04:10:12.371Z,99.90
2018-03-27T04:12:38.832Z,99.90
2018-03-27T04:15:06.028Z,99.90
2018-03-27T04:17:33.343Z,99.90
2018-03-27T04:22:30.162Z,99.90
2018-03-27T04:24:56.935Z,99.90
2018-03-27T04:27:23.755Z,99.90
2018-03-27T04:29:50.789Z,99.90
2018-03-27T04:32:17.400Z,99.90
2018-03-27T04:34:43.945Z,99.90
2018-03-27T04:37:11.832Z,99.90
2018-03-27T04:39:39.037Z,99.90
2018-03-27T04:42:05.576Z,99.90
2018-03-27T04:44:32.138Z,99.90
2018-03-27T04:46:58.664Z,99.90
2018-03-27T04:49:26.890Z,99.90
2018-03-27T04:54:21.616Z,99.90
2018-03-27T04:59:16.438Z,99.90
2018-03-27T05:01:43.695Z,99.90
2018-03-27T05:04:11.322Z,99.90
2018-03-27T05:09:06.329Z,99.90
2018-03-27T05:11:34.243Z,99.90
2018-03-27T05:14:00.654Z,99.90
2018-03-27T05:16:27.102Z,99.90
2018-03-27T05:18:54.352Z,99.90
2018-03-27T05:21:20.813Z,99.90
2018-03-27T05:23:48.597Z,99.90
2018-03-27T05:26:15.130Z,99.90
2018-03-27T05:28:43.186Z,99.90
2018-03-27T05:31:10.915Z,99.90
2018-03-27T05:33:38.728Z,99.90
2018-03-27T05:36:05.556Z,99.90
2018-03-27T05:38:32.131Z,99.90
2018-03-27T05:40:58.607Z,99.90
2018-03-27T05:43:25.023Z,99.90
2018-03-27T05:48:19.888Z,99.90
2018-03-27T05:50:46.685Z,99.90
2018-03-27T05:53:14.128Z,99.90
2018-03-27T05:55:40.954Z,99.90
2018-03-27T05:58:08.895Z,99.90
2018-03-27T06:03:03.870Z,99.90
2018-03-27T06:05:30.747Z,99.90
2018-03-27T06:07:57.282Z,99.90
2018-03-27T06:10:24.557Z,99.90
2018-03-27T06:12:51.906Z,99.90
2018-03-27T06:15:19.084Z,99.90
2018-03-27T06:17:45.582Z,99.90
2018-03-27T06:20:12.158Z,99.90
2018-03-27T06:22:39.442Z,99.90
2018-03-27T06:25:06.480Z,99.90
2018-03-27T06:30:01.536Z,99.90
2018-03-27T06:32:29.074Z,99.90
2018-03-27T06:34:55.570Z,99.90
2018-03-27T06:37:23.195Z,99.90
2018-03-27T06:39:49.692Z,99.90
2018-03-27T06:42:16.224Z,99.90
2018-03-27T06:44:43.349Z,99.90
2018-03-27T06:47:10.188Z,99.90
2018-03-27T06:49:37.517Z,99.90
2018-03-27T06:52:04.758Z,99.90
2018-03-27T06:54:31.972Z,99.90
2018-03-27T06:56:59.007Z,99.90
2018-03-27T06:59:26.232Z,99.90
2018-03-27T07:01:53.441Z,99.90
2018-03-27T07:04:20.338Z,99.90
2018-03-27T07:09:15.190Z,99.90
2018-03-27T07:11:42.616Z,99.90
2018-03-27T07:14:10.461Z,99.90
2018-03-27T07:16:38.041Z,99.90
2018-03-27T07:19:05.789Z,99.90
2018-03-27T07:21:32.421Z,99.90
2018-03-27T07:24:00.282Z,99.90
2018-03-27T07:26:27.334Z,99.90
2018-03-27T07:31:24.561Z,99.90
2018-03-27T07:33:51.974Z,99.90
2018-03-27T07:38:48.814Z,99.90
2018-03-27T07:43:44.573Z,99.90
2018-03-27T07:46:11.479Z,99.90
2018-03-27T08:05:56.487Z,99.90
2018-03-27T08:08:22.946Z,99.90
2018-03-27T08:10:49.469Z,99.90
2018-03-27T08:13:15.930Z,99.90
2018-03-27T08:15:42.405Z,99.90
2018-03-27T08:18:08.926Z,99.90
2018-03-27T08:23:04.733Z,99.90
2018-03-27T08:25:31.177Z,99.90
2018-03-27T08:27:57.713Z,99.90
2018-03-27T08:30:24.179Z,99.90
2018-03-27T08:32:52.043Z,99.90
2018-03-27T08:35:18.540Z,99.90
2018-03-27T08:40:13.230Z,99.90
2018-03-27T08:42:41.184Z,99.90
2018-03-27T08:45:07.720Z,99.90
2018-03-27T08:47:34.601Z,99.90
2018-03-27T08:50:01.175Z,99.90
2018-03-27T08:52:28.826Z,99.90
2018-03-27T08:54:55.242Z,99.90
2018-03-27T08:57:21.810Z,99.90
2018-03-27T08:59:49.435Z,99.90
2018-03-27T09:02:15.920Z,99.90
2018-03-27T09:09:39.695Z,99.90
2018-03-27T09:12:07.265Z,99.90
2018-03-27T09:21:58.461Z,99.90
2018-03-27T09:24:25.723Z,99.90
2018-03-27T09:26:52.541Z,99.90
2018-03-27T09:31:48.318Z,99.90
2018-03-27T09:36:43.027Z,99.90
2018-03-27T09:39:09.528Z,99.90
2018-03-27T09:41:38.886Z,99.90
2018-03-27T09:44:05.856Z,99.90
2018-03-27T10:01:27.646Z,99.90
2018-03-27T10:03:54.242Z,99.90
2018-03-27T10:06:20.823Z,99.90
2018-03-27T10:08:48.376Z,99.90
2018-03-27T10:11:15.683Z,99.90
2018-03-27T10:13:42.235Z,99.90
2018-03-27T10:18:36.820Z,99.90
2018-03-27T10:21:03.443Z,99.90
2018-03-27T10:23:31.100Z,99.90
2018-03-27T10:25:58.680Z,99.90
2018-03-27T10:28:25.216Z,99.90
2018-03-27T10:35:48.389Z,91.00
2018-03-27T10:38:14.922Z,94.90
2018-03-27T10:48:05.689Z,94.30
2018-03-27T10:50:32.226Z,90.60
2018-03-27T10:52:58.570Z,90.60
2018-03-27T10:55:25.396Z,72.00
2018-03-27T10:57:52.331Z,81.50
2018-03-27T11:02:48.594Z,85.30
2018-03-27T11:05:17.464Z,87.90
2018-03-27T11:07:45.077Z,74.40
2018-03-27T11:12:39.837Z,85.40
2018-03-27T11:15:07.008Z,76.80
2018-03-27T11:17:33.581Z,90.50
2018-03-27T11:22:28.735Z,65.10
2018-03-27T11:24:56.069Z,64.60
2018-03-27T11:27:23.346Z,69.90
2018-03-27T11:29:51.136Z,74.20
2018-03-27T11:32:17.715Z,80.60
2018-03-27T11:34:44.252Z,79.60
2018-03-27T11:39:39.099Z,91.10
2018-03-27T11:42:06.554Z,98.10
2018-03-27T11:44:34.445Z,99.90
2018-03-27T11:47:03.949Z,99.90
2018-03-27T11:51:58.713Z,92.50
2018-03-27T11:54:25.188Z,91.90
2018-03-27T11:56:52.641Z,79.00
2018-03-27T11:59:19.928Z,79.60
2018-03-27T12:01:47.750Z,69.20
2018-03-27T12:04:14.771Z,57.30
2018-03-27T12:06:46.861Z,53.20
2018-03-27T12:09:14.979Z,46.20
2018-03-27T12:11:41.934Z,43.70
2018-03-27T12:14:08.419Z,55.80
2018-03-27T12:16:36.622Z,41.10
2018-03-27T12:19:04.594Z,41.20
2018-03-27T12:24:00.730Z,40.20
2018-03-27T12:26:29.088Z,51.80
2018-03-27T12:28:56.546Z,58.30
2018-03-27T12:31:24.098Z,47.00
2018-03-27T12:33:50.636Z,59.20
2018-03-27T12:38:46.238Z,63.40
2018-03-27T12:41:13.941Z,64.70
2018-03-27T12:43:43.714Z,56.70
2018-03-27T12:46:11.013Z,51.60
2018-03-27T12:51:06.558Z,62.80
2018-03-27T12:53:35.281Z,49.40
2018-03-27T12:56:03.414Z,59.50
2018-03-27T12:58:33.098Z,52.70
2018-03-27T13:01:02.834Z,58.90
2018-03-27T13:03:31.069Z,51.30
2018-03-27T13:05:58.292Z,49.00
2018-03-27T13:08:25.301Z,58.10
2018-03-27T13:10:52.217Z,47.60
2018-03-27T13:13:18.648Z,62.50
2018-03-27T13:20:42.607Z,51.60
2018-03-27T13:23:11.183Z,50.60
2018-03-27T13:25:38.643Z,63.10
2018-03-27T13:33:05.050Z,50.80
2018-03-27T13:35:33.282Z,51.00
2018-03-27T13:37:59.926Z,61.30
2018-03-27T13:40:27.958Z,49.50
2018-03-27T13:45:23.525Z,59.00
2018-03-27T13:47:50.223Z,57.60
2018-03-27T13:52:46.882Z,49.30
2018-03-27T13:55:13.760Z,62.70
2018-03-27T13:57:41.334Z,65.40
2018-03-27T14:00:09.791Z,50.30
2018-03-27T14:02:37.090Z,59.70
2018-03-27T14:05:04.833Z,50.00
2018-03-27T14:23:14.012Z,64.00
2018-03-27T14:35:43.197Z,56.00
2018-03-27T14:40:45.181Z,62.70
2018-03-27T14:58:10.589Z,99.90
2018-03-27T15:03:06.642Z,99.90
2018-03-27T15:05:33.925Z,99.90
2018-03-27T15:13:03.978Z,99.90
2018-03-27T16:54:58.683Z,99.90
2018-03-27T17:04:50.995Z,99.90
2018-03-27T17:07:17.833Z,99.90
2018-03-27T17:09:45.304Z,99.90
2018-03-27T17:14:41.628Z,99.90
2018-03-27T17:17:09.151Z,99.90
2018-03-27T17:19:36.044Z,99.90
2018-03-27T17:24:30.941Z,99.90
2018-03-27T17:29:26.396Z,99.90
2018-03-27T17:31:53.300Z,99.90
2018-03-27T17:36:50.004Z,99.90
2018-03-27T17:39:17.967Z,99.90
2018-03-27T17:41:44.639Z,99.90
2018-03-27T17:44:11.364Z,99.90
2018-03-27T17:46:38.595Z,99.90
2018-03-27T17:49:05.583Z,99.90
2018-03-27T17:51:32.136Z,99.90
2018-03-27T17:53:59.187Z,99.90
2018-03-27T17:56:26.109Z,99.90
2018-03-27T17:58:52.600Z,99.90
2018-03-27T18:01:19.076Z,99.90
2018-03-27T18:03:45.887Z,99.90
2018-03-27T18:11:38.969Z,99.90
2018-03-27T18:16:44.472Z,99.90
2018-03-27T18:26:36.703Z,99.90
2018-03-27T18:31:32.731Z,99.90
2018-03-27T18:36:28.566Z,99.90
2018-03-27T18:38:55.301Z,99.90
2018-03-27T18:41:22.509Z,99.90
2018-03-27T18:43:49.051Z,99.90
2018-03-27T18:46:16.391Z,99.90
2018-03-27T18:48:44.825Z,99.90
2018-03-27T18:51:11.359Z,99.90
2018-03-27T18:58:42.916Z,99.90
2018-03-27T19:01:10.839Z,99.90
2018-03-27T19:03:38.070Z,99.90
2018-03-27T19:06:05.947Z,99.90
2018-03-27T19:08:32.584Z,99.90
2018-03-27T19:10:59.947Z,99.90
2018-03-27T19:13:26.659Z,99.90
2018-03-27T19:15:53.227Z,99.90
2018-03-27T19:18:19.854Z,99.90
2018-03-27T19:25:47.256Z,99.90
2018-03-27T19:35:40.778Z,99.90
2018-03-27T19:38:07.564Z,99.90
2018-03-27T19:40:38.950Z,99.90
2018-03-27T19:43:05.561Z,99.90
2018-03-27T19:45:33.348Z,99.90
2018-03-27T19:48:00.719Z,99.90
2018-03-27T19:50:28.452Z,99.90
2018-03-27T19:52:55.945Z,99.90
2018-03-27T19:55:22.635Z,99.90
2018-03-27T19:57:50.292Z,99.90
2018-03-27T20:00:16.824Z,99.90
2018-03-27T20:02:43.396Z,99.90
2018-03-27T20:07:47.460Z,99.90
2018-03-27T20:10:14.204Z,99.90
2018-03-27T20:12:43.784Z,99.90
2018-03-27T20:20:20.641Z,99.90
2018-03-27T20:25:15.311Z,99.90
2018-03-27T20:27:42.224Z,99.90
2018-03-27T20:30:08.987Z,99.90
2018-03-27T20:32:35.736Z,99.90
2018-03-27T20:35:08.021Z,99.90
2018-03-27T20:40:04.540Z,99.90
2018-03-27T20:42:32.136Z,99.90
2018-03-27T20:44:58.694Z,99.90
2018-03-27T20:47:25.280Z,99.90
2018-03-27T20:49:52.224Z,99.90
2018-03-27T20:54:47.716Z,99.90
2018-03-27T20:57:16.076Z,99.90
2018-03-27T20:59:44.075Z,99.90
2018-03-27T21:02:10.712Z,99.90
2018-03-27T21:04:38.464Z,99.90
2018-03-27T21:09:33.350Z,99.90
2018-03-27T21:14:28.769Z,99.90
2018-03-27T21:16:56.303Z,99.90
2018-03-27T21:19:22.757Z,99.90
2018-03-27T21:21:50.414Z,99.90
2018-03-27T21:24:17.067Z,99.90
2018-03-27T21:26:44.058Z,99.90
2018-03-27T21:29:11.724Z,99.90
2018-03-27T21:31:38.840Z,99.90
2018-03-27T21:34:06.532Z,99.90
2018-03-27T21:36:32.998Z,99.90
2018-03-27T21:38:59.429Z,99.90
2018-03-27T21:41:27.916Z,99.90
2018-03-27T21:43:54.912Z,99.90
2018-03-27T21:46:22.133Z,99.90
2018-03-27T21:48:49.469Z,99.90
2018-03-27T21:51:16.764Z,99.90
2018-03-27T21:53:43.506Z,99.90
2018-03-27T21:56:10.003Z,99.90
2018-03-27T22:01:04.854Z,99.90
2018-03-27T22:03:38.992Z,99.90
2018-03-27T22:06:06.642Z,99.90
2018-03-27T22:08:34.323Z,99.90
2018-03-27T22:11:00.893Z,99.90
2018-03-27T22:13:29.884Z,99.90
2018-03-27T22:15:56.392Z,99.90
2018-03-27T22:18:23.580Z,99.90
2018-03-27T22:20:50.951Z,99.90
2018-03-27T22:23:17.491Z,99.90
2018-03-27T22:25:44.269Z,99.90
2018-03-27T22:28:10.905Z,99.90
2018-03-27T22:30:37.871Z,99.90
2018-03-27T22:33:04.762Z,99.90
2018-03-27T22:37:59.886Z,99.90
2018-03-27T22:40:27.005Z,99.90
2018-03-27T22:42:53.506Z,99.90
2018-03-27T22:45:21.074Z,99.90
2018-03-27T22:47:47.658Z,99.90
2018-03-27T22:50:14.392Z,99.90
2018-03-27T22:52:41.012Z,99.90
2018-03-27T22:55:07.868Z,99.90
2018-03-27T22:57:34.885Z,99.90
2018-03-27T23:00:01.966Z,99.90
2018-03-27T23:02:29.581Z,99.90
2018-03-27T23:04:56.132Z,99.90
2018-03-27T23:07:22.640Z,99.90
2018-03-27T23:09:49.704Z,99.90
2018-03-27T23:12:16.462Z,99.90
2018-03-27T23:14:43.436Z,99.90
2018-03-27T23:17:10.270Z,99.90
2018-03-27T23:19:37.125Z,99.90
2018-03-27T23:22:04.004Z,99.90
2018-03-27T23:24:30.979Z,99.90
2018-03-27T23:26:59.454Z,99.90
2018-03-27T23:31:55.285Z,99.90
2018-03-27T23:36:50.866Z,99.90
2018-03-27T23:39:18.061Z,99.90
2018-03-27T23:41:44.520Z,99.90
2018-03-27T23:44:11.368Z,99.90
2018-03-27T23:51:34.038Z,99.90
2018-03-27T23:56:29.330Z,99.90
2018-03-27T23:58:56.794Z,99.90
